Time;durP1;ratioP1;P1;durP2;ratioP2;P2;SDS_P1;SDS_P2;PMS_P1;PMS_P2;Temp;Humidity;BMP_temperature;BMP_pressure;BME280_temperature;BME280_humidity;BME280_pressure;Samples;Min_cycle;Max_cycle;Signal;HPM_P1;HPM_P2
2021/04/17 00:00:00;;;;;;;8.87;6.30;;;;;;;;;;2098407;28;20201;-59
2021/04/17 00:01:01;;;;;;;7.67;5.80;;;;;;;;;;2098915;28;20163;-60
2021/04/17 00:02:02;;;;;;;9.43;6.37;;;;;;;;;;2093505;28;20179;-60
2021/04/17 00:03:03;;;;;;;11.90;6.63;;;;;;;;;;2098948;28;20275;-61
2021/04/17 00:04:04;;;;;;;7.70;6.23;;;;;;;;;;2098364;28;20175;-60
2021/04/17 00:05:06;;;;;;;8.03;5.87;;;;;;;;;;2090570;28;20164;-61
2021/04/17 00:06:07;;;;;;;8.77;6.57;;;;;;;;;;2089630;28;20189;-60
2021/04/17 00:07:08;;;;;;;8.57;6.50;;;;;;;;;;2092787;28;20182;-59
2021/04/17 00:08:08;;;;;;;9.57;6.20;;;;;;;;;;2088884;28;20183;-58
2021/04/17 00:09:10;;;;;;;10.07;6.80;;;;;;;;;;2090080;28;20701;-59
2021/04/17 00:10:11;;;;;;;7.80;6.50;;;;;;;;;;2095245;28;20591;-58
2021/04/17 00:11:11;;;;;;;7.37;6.13;;;;;;;;;;2099731;28;20163;-60
2021/04/17 00:12:14;;;;;;;9.40;6.43;;;;;;;;;;2091055;28;20171;-60
2021/04/17 00:13:14;;;;;;;7.07;6.37;;;;;;;;;;2087776;28;20192;-59
2021/04/17 00:14:17;;;;;;;9.13;6.30;;;;;;;;;;2089766;28;20172;-59
2021/04/17 00:15:17;;;;;;;8.27;6.37;;;;;;;;;;2097653;28;20167;-58
2021/04/17 00:16:18;;;;;;;7.37;5.80;;;;;;;;;;2094389;28;20178;-56
2021/04/17 00:17:19;;;;;;;6.67;5.90;;;;;;;;;;2098080;28;20255;-56
2021/04/17 00:18:19;;;;;;;8.23;6.67;;;;;;;;;;2098051;28;20683;-56
2021/04/17 00:19:20;;;;;;;9.33;5.50;;;;;;;;;;2097628;28;20237;-57
2021/04/17 00:20:20;;;;;;;7.20;6.50;;;;;;;;;;2098315;28;20191;-62
2021/04/17 00:21:20;;;;;;;7.73;6.10;;;;;;;;;;2097623;28;20597;-57
2021/04/17 00:22:21;;;;;;;10.93;6.63;;;;;;;;;;2098998;28;20651;-57
2021/04/17 00:23:21;;;;;;;10.23;6.57;;;;;;;;;;2095508;28;20234;-60
2021/04/17 00:24:21;;;;;;;7.00;6.33;;;;;;;;;;2095337;28;20701;-56
2021/04/17 00:25:22;;;;;;;10.17;6.70;;;;;;;;;;2098714;28;20175;-57
2021/04/17 00:26:23;;;;;;;7.77;6.60;;;;;;;;;;2099215;28;20163;-60
2021/04/17 00:27:23;;;;;;;8.63;6.50;;;;;;;;;;2097357;28;20179;-55
2021/04/17 00:28:23;;;;;;;8.73;6.20;;;;;;;;;;2099033;28;20167;-57
2021/04/17 00:29:23;;;;;;;9.10;6.57;;;;;;;;;;2098277;28;20189;-60
2021/04/17 00:30:24;;;;;;;7.20;6.50;;;;;;;;;;2098281;28;20230;-59
2021/04/17 00:31:24;;;;;;;7.57;6.80;;;;;;;;;;2098295;28;20191;-60
2021/04/17 00:32:24;;;;;;;10.63;6.47;;;;;;;;;;2097749;28;20277;-57
2021/04/17 00:33:25;;;;;;;7.57;6.43;;;;;;;;;;2094690;28;20480;-59
2021/04/17 00:34:25;;;;;;;9.00;8.03;;;;;;;;;;2098913;28;20236;-57
2021/04/17 00:35:26;;;;;;;8.23;6.93;;;;;;;;;;2098720;28;20179;-56
2021/04/17 00:36:26;;;;;;;8.00;6.87;;;;;;;;;;2099312;28;20171;-59
2021/04/17 00:37:26;;;;;;;16.07;11.30;;;;;;;;;;2098042;28;20603;-58
2021/04/17 00:38:28;;;;;;;8.13;7.33;;;;;;;;;;2098921;28;20187;-59
2021/04/17 00:39:28;;;;;;;17.50;11.63;;;;;;;;;;2097238;28;20213;-59
2021/04/17 00:40:28;;;;;;;8.10;6.70;;;;;;;;;;2089300;28;20163;-58
2021/04/17 00:41:29;;;;;;;8.67;7.83;;;;;;;;;;2098143;28;20229;-60
2021/04/17 00:42:29;;;;;;;11.43;8.23;;;;;;;;;;2098216;28;20182;-59
2021/04/17 00:43:29;;;;;;;9.90;7.13;;;;;;;;;;2097765;28;20159;-58
2021/04/17 00:44:30;;;;;;;8.00;7.13;;;;;;;;;;2097090;28;20171;-55
2021/04/17 00:45:30;;;;;;;13.37;8.80;;;;;;;;;;2094988;28;20210;-59
2021/04/17 00:46:30;;;;;;;7.33;6.53;;;;;;;;;;2097300;28;20190;-58
2021/04/17 00:47:31;;;;;;;8.63;7.33;;;;;;;;;;2097892;28;20279;-58
2021/04/17 00:48:32;;;;;;;9.00;7.97;;;;;;;;;;2098589;28;20183;-62
2021/04/17 00:49:32;;;;;;;9.10;7.97;;;;;;;;;;2099023;28;20206;-59
2021/04/17 00:50:33;;;;;;;6.47;5.77;;;;;;;;;;2098183;28;20241;-58
2021/04/17 00:51:33;;;;;;;7.07;6.37;;;;;;;;;;2098137;28;20548;-58
2021/04/17 00:52:34;;;;;;;7.30;6.57;;;;;;;;;;2098004;28;20213;-57
2021/04/17 00:53:34;;;;;;;10.73;6.27;;;;;;;;;;2097262;28;20174;-59
2021/04/17 00:54:34;;;;;;;8.43;7.50;;;;;;;;;;2096215;28;20170;-57
2021/04/17 00:55:35;;;;;;;6.57;5.97;;;;;;;;;;2088873;28;20245;-60
2021/04/17 00:56:35;;;;;;;7.87;7.17;;;;;;;;;;2089882;28;20265;-59
2021/04/17 00:57:36;;;;;;;8.03;6.40;;;;;;;;;;2087193;28;20210;-62
2021/04/17 00:58:37;;;;;;;7.83;6.30;;;;;;;;;;2098196;28;20183;-56
2021/04/17 00:59:37;;;;;;;8.30;6.43;;;;;;;;;;2096798;28;20637;-58
2021/04/17 01:00:37;;;;;;;7.13;5.77;;;;;;;;;;2099130;28;20190;-58
2021/04/17 01:01:38;;;;;;;13.23;7.03;;;;;;;;;;2097982;28;20307;-59
2021/04/17 01:02:43;;;;;;;6.83;6.13;;;;;;;;;;2097730;28;20167;-59
2021/04/17 01:03:49;;;;;;;8.23;6.10;;;;;;;;;;2097487;28;20198;-58
2021/04/17 01:04:50;;;;;;;9.30;5.97;;;;;;;;;;2098841;28;20282;-57
2021/04/17 01:05:53;;;;;;;7.00;6.30;;;;;;;;;;2099032;28;20178;-58
2021/04/17 01:07:02;;;;;;;5.97;5.47;;;;;;;;;;2098492;28;20186;-59
2021/04/17 01:08:05;;;;;;;8.80;5.80;;;;;;;;;;2097026;28;20179;-59
2021/04/17 01:09:08;;;;;;;8.70;5.87;;;;;;;;;;2097869;28;20675;-57
2021/04/17 01:10:19;;;;;;;7.00;5.70;;;;;;;;;;2098657;28;20271;-59
2021/04/17 01:11:25;;;;;;;7.13;6.07;;;;;;;;;;2098262;28;20237;-59
2021/04/17 01:12:29;;;;;;;8.40;5.93;;;;;;;;;;2096998;28;20183;-57
2021/04/17 01:13:30;;;;;;;7.73;5.90;;;;;;;;;;2097973;28;20266;-56
2021/04/17 01:14:31;;;;;;;6.20;5.53;;;;;;;;;;2097465;28;20228;-58
2021/04/17 01:15:31;;;;;;;5.90;5.40;;;;;;;;;;2098171;28;20183;-55
2021/04/17 01:16:32;;;;;;;8.00;6.03;;;;;;;;;;2098320;28;20171;-56
2021/04/17 01:17:33;;;;;;;6.43;5.87;;;;;;;;;;2097761;28;20620;-56
2021/04/17 01:18:34;;;;;;;9.73;7.00;;;;;;;;;;2091858;28;20255;-56
2021/04/17 01:19:40;;;;;;;9.87;6.50;;;;;;;;;;2098180;28;20546;-57
2021/04/17 01:20:51;;;;;;;8.27;6.50;;;;;;;;;;2093585;28;20255;-57
2021/04/17 01:21:51;;;;;;;8.37;6.37;;;;;;;;;;2094780;28;20167;-56
2021/04/17 01:23:10;;;;;;;8.17;6.30;;;;;;;;;;2097308;28;20679;-58
2021/04/17 01:24:18;;;;;;;6.60;5.73;;;;;;;;;;2092778;28;20182;-59
2021/04/17 01:25:20;;;;;;;7.40;6.70;;;;;;;;;;2098833;28;20171;-58
2021/04/17 01:26:22;;;;;;;7.67;6.50;;;;;;;;;;2098255;28;20178;-56
2021/04/17 01:27:22;;;;;;;6.97;6.27;;;;;;;;;;2098965;28;20608;-57
2021/04/17 01:28:23;;;;;;;9.40;6.77;;;;;;;;;;2089607;28;20164;-57
2021/04/17 01:29:24;;;;;;;8.23;6.77;;;;;;;;;;2089492;28;20262;-58
2021/04/17 01:30:24;;;;;;;6.77;6.07;;;;;;;;;;2097978;28;20577;-59
2021/04/17 01:31:27;;;;;;;8.73;6.20;;;;;;;;;;2097685;28;20167;-61
2021/04/17 01:32:28;;;;;;;7.37;6.30;;;;;;;;;;2097824;28;20178;-60
2021/04/17 01:33:31;;;;;;;6.97;6.30;;;;;;;;;;2098741;28;20225;-59
2021/04/17 01:34:31;;;;;;;8.63;6.20;;;;;;;;;;2098421;28;20526;-57
2021/04/17 01:35:32;;;;;;;7.77;6.97;;;;;;;;;;2098551;28;20186;-62
2021/04/17 01:36:33;;;;;;;8.17;6.27;;;;;;;;;;2099755;28;20183;-60
2021/04/17 01:37:51;;;;;;;9.13;6.97;;;;;;;;;;2090997;28;20183;-62
2021/04/17 01:39:11;;;;;;;11.73;6.03;;;;;;;;;;2091387;28;20179;-60
2021/04/17 01:40:12;;;;;;;7.83;6.10;;;;;;;;;;2100123;28;20542;-61
2021/04/17 01:41:27;;;;;;;10.33;6.57;;;;;;;;;;2099274;28;20257;-62
2021/04/17 01:42:28;;;;;;;7.23;6.40;;;;;;;;;;2099345;28;20159;-56
2021/04/17 01:43:29;;;;;;;8.37;6.60;;;;;;;;;;2098283;28;20203;-60
2021/04/17 01:44:31;;;;;;;7.90;6.57;;;;;;;;;;2098920;28;20214;-60
2021/04/17 01:45:33;;;;;;;6.90;6.23;;;;;;;;;;2089734;28;20543;-60
2021/04/17 01:46:35;;;;;;;10.27;6.67;;;;;;;;;;2082109;28;20220;-59
2021/04/17 01:47:36;;;;;;;7.83;6.67;;;;;;;;;;2090307;28;20178;-62
2021/04/17 01:48:37;;;;;;;7.10;6.40;;;;;;;;;;2098256;28;20198;-60
2021/04/17 01:49:38;;;;;;;10.20;6.97;;;;;;;;;;2099976;28;20195;-60
2021/04/17 01:50:40;;;;;;;7.70;6.63;;;;;;;;;;2100445;28;20562;-60
2021/04/17 01:51:41;;;;;;;7.87;6.20;;;;;;;;;;2100129;28;20679;-57
2021/04/17 01:52:42;;;;;;;9.03;5.90;;;;;;;;;;2099997;28;20261;-60
2021/04/17 01:53:44;;;;;;;9.33;6.53;;;;;;;;;;2099455;28;20171;-62
2021/04/17 01:54:46;;;;;;;9.80;6.90;;;;;;;;;;2100387;28;20178;-60
2021/04/17 01:55:47;;;;;;;7.87;6.90;;;;;;;;;;2100152;28;20203;-59
2021/04/17 01:56:49;;;;;;;10.47;8.10;;;;;;;;;;2100220;28;20213;-60
2021/04/17 01:57:49;;;;;;;9.17;7.23;;;;;;;;;;2100122;28;20166;-58
2021/04/17 01:58:50;;;;;;;7.30;6.50;;;;;;;;;;2099564;28;20674;-59
2021/04/17 01:59:51;;;;;;;8.40;7.27;;;;;;;;;;2099594;28;20289;-55
2021/04/17 02:00:52;;;;;;;11.00;9.27;;;;;;;;;;2099621;28;20186;-56
2021/04/17 02:01:53;;;;;;;8.87;7.40;;;;;;;;;;2099445;28;20197;-56
2021/04/17 02:02:53;;;;;;;7.23;6.53;;;;;;;;;;2099136;28;20190;-55
2021/04/17 02:03:54;;;;;;;8.23;7.07;;;;;;;;;;2099050;28;20165;-59
2021/04/17 02:04:54;;;;;;;7.67;6.97;;;;;;;;;;2099324;28;20281;-57
2021/04/17 02:05:55;;;;;;;8.73;6.57;;;;;;;;;;2099302;28;20207;-61
2021/04/17 02:06:55;;;;;;;9.13;6.73;;;;;;;;;;2100270;28;20186;-58
2021/04/17 02:07:56;;;;;;;13.33;6.73;;;;;;;;;;2096084;28;20704;-57
2021/04/17 02:08:56;;;;;;;9.40;6.67;;;;;;;;;;2099609;28;20258;-58
2021/04/17 02:09:56;;;;;;;7.33;6.43;;;;;;;;;;2099484;28;20167;-59
2021/04/17 02:10:56;;;;;;;8.17;6.70;;;;;;;;;;2098794;28;20200;-56
2021/04/17 02:11:57;;;;;;;8.47;6.90;;;;;;;;;;2099671;28;20167;-55
2021/04/17 02:12:57;;;;;;;8.87;7.00;;;;;;;;;;2095503;28;20579;-59
2021/04/17 02:13:58;;;;;;;8.33;6.37;;;;;;;;;;2099069;28;20383;-60
2021/04/17 02:14:59;;;;;;;8.10;6.93;;;;;;;;;;2095873;28;20241;-58
2021/04/17 02:16:03;;;;;;;7.60;6.87;;;;;;;;;;2098454;28;20203;-58
2021/04/17 02:17:13;;;;;;;7.33;6.63;;;;;;;;;;2098395;28;20651;-58
2021/04/17 02:18:13;;;;;;;8.63;6.70;;;;;;;;;;2098121;28;20186;-59
2021/04/17 02:19:18;;;;;;;8.67;7.10;;;;;;;;;;2098768;28;20194;-59
2021/04/17 02:20:22;;;;;;;8.33;6.93;;;;;;;;;;2094293;28;20178;-56
2021/04/17 02:21:25;;;;;;;8.57;6.70;;;;;;;;;;2095346;28;20266;-59
2021/04/17 02:22:26;;;;;;;8.87;7.00;;;;;;;;;;2098700;28;20183;-60
2021/04/17 02:23:28;;;;;;;7.70;6.27;;;;;;;;;;2097991;28;20626;-56
2021/04/17 02:24:28;;;;;;;8.40;6.50;;;;;;;;;;2099106;28;20223;-58
2021/04/17 02:25:29;;;;;;;8.20;6.77;;;;;;;;;;2098109;28;20699;-59
2021/04/17 02:26:29;;;;;;;9.00;6.17;;;;;;;;;;2090395;28;20182;-59
2021/04/17 02:27:29;;;;;;;8.97;6.53;;;;;;;;;;2098274;28;20202;-56
2021/04/17 02:28:30;;;;;;;8.77;6.33;;;;;;;;;;2098687;28;20720;-57
2021/04/17 02:29:32;;;;;;;7.97;6.40;;;;;;;;;;2098888;28;20175;-57
2021/04/17 02:30:35;;;;;;;7.77;6.97;;;;;;;;;;2098964;28;20171;-59
2021/04/17 02:31:35;;;;;;;9.13;6.83;;;;;;;;;;2098879;28;20282;-55
2021/04/17 02:32:35;;;;;;;9.03;6.13;;;;;;;;;;2098390;28;20190;-55
2021/04/17 02:33:36;;;;;;;8.97;6.80;;;;;;;;;;2099443;28;20183;-56
2021/04/17 02:34:36;;;;;;;7.87;6.80;;;;;;;;;;2098813;28;20190;-56
2021/04/17 02:35:36;;;;;;;11.63;7.57;;;;;;;;;;2099122;28;20207;-59
2021/04/17 02:36:36;;;;;;;10.90;7.00;;;;;;;;;;2099289;28;20410;-56
2021/04/17 02:37:37;;;;;;;7.63;6.80;;;;;;;;;;2098282;28;20819;-58
2021/04/17 02:38:37;;;;;;;12.27;7.83;;;;;;;;;;2098657;28;20191;-56
2021/04/17 02:39:37;;;;;;;8.23;7.13;;;;;;;;;;2100081;28;20206;-56
2021/04/17 02:40:38;;;;;;;12.20;7.20;;;;;;;;;;2097804;28;20186;-58
2021/04/17 02:41:38;;;;;;;10.17;7.40;;;;;;;;;;2097611;28;20262;-58
2021/04/17 02:42:38;;;;;;;8.43;6.37;;;;;;;;;;2098117;28;20219;-57
2021/04/17 02:43:42;;;;;;;10.33;6.90;;;;;;;;;;2097895;28;20200;-56
2021/04/17 02:44:42;;;;;;;8.93;7.40;;;;;;;;;;2100323;28;20167;-57
2021/04/17 02:45:43;;;;;;;9.70;7.63;;;;;;;;;;2099763;28;20174;-60
2021/04/17 02:46:43;;;;;;;9.20;6.70;;;;;;;;;;2099346;28;20163;-57
2021/04/17 02:47:43;;;;;;;10.60;6.87;;;;;;;;;;2099658;28;20171;-58
2021/04/17 02:48:43;;;;;;;7.80;6.60;;;;;;;;;;2099618;28;20163;-55
2021/04/17 02:49:44;;;;;;;8.17;6.90;;;;;;;;;;2099785;28;20193;-59
2021/04/17 02:50:44;;;;;;;9.43;7.37;;;;;;;;;;2099861;28;20279;-60
2021/04/17 02:51:44;;;;;;;8.57;6.60;;;;;;;;;;2098765;28;20594;-56
2021/04/17 02:52:45;;;;;;;8.77;6.93;;;;;;;;;;2099271;28;20584;-57
2021/04/17 02:53:45;;;;;;;11.90;7.40;;;;;;;;;;2097837;28;20218;-54
2021/04/17 02:54:45;;;;;;;10.23;7.50;;;;;;;;;;2099018;28;20518;-57
2021/04/17 02:55:46;;;;;;;12.43;7.43;;;;;;;;;;2098887;28;20186;-60
2021/04/17 02:56:46;;;;;;;9.50;7.00;;;;;;;;;;2089302;28;20176;-60
2021/04/17 02:57:49;;;;;;;11.90;7.60;;;;;;;;;;2082328;28;20200;-58
2021/04/17 02:58:49;;;;;;;13.03;7.27;;;;;;;;;;2098671;28;20195;-61
2021/04/17 02:59:49;;;;;;;13.90;8.13;;;;;;;;;;2098632;28;20281;-58
2021/04/17 03:00:50;;;;;;;8.00;7.23;;;;;;;;;;2098217;28;20175;-60
2021/04/17 03:01:50;;;;;;;8.33;7.23;;;;;;;;;;2098500;28;20606;-59
2021/04/17 03:02:50;;;;;;;9.43;7.63;;;;;;;;;;2099156;28;20202;-60
2021/04/17 03:03:51;;;;;;;12.57;7.67;;;;;;;;;;2099333;28;20204;-59
2021/04/17 03:04:51;;;;;;;10.57;7.77;;;;;;;;;;2090461;28;20218;-62
2021/04/17 03:05:51;;;;;;;11.57;7.10;;;;;;;;;;2090660;28;20648;-60
2021/04/17 03:06:51;;;;;;;11.00;6.93;;;;;;;;;;2098707;28;20195;-62
2021/04/17 03:07:52;;;;;;;10.07;7.37;;;;;;;;;;2097434;28;20511;-60
2021/04/17 03:08:52;;;;;;;13.70;7.27;;;;;;;;;;2100676;28;20562;-60
2021/04/17 03:09:52;;;;;;;9.10;7.27;;;;;;;;;;2100901;28;20173;-59
2021/04/17 03:10:53;;;;;;;15.40;7.97;;;;;;;;;;2098688;28;20247;-58
2021/04/17 03:11:53;;;;;;;10.33;7.70;;;;;;;;;;2101722;28;20189;-56
2021/04/17 03:12:53;;;;;;;8.30;6.90;;;;;;;;;;2099322;28;20206;-55
2021/04/17 03:13:54;;;;;;;10.43;7.90;;;;;;;;;;2089484;28;20195;-55
2021/04/17 03:14:54;;;;;;;9.37;7.53;;;;;;;;;;2085627;28;20305;-55
2021/04/17 03:15:54;;;;;;;11.70;7.37;;;;;;;;;;2097852;28;20256;-59
2021/04/17 03:16:55;;;;;;;10.17;8.20;;;;;;;;;;2094728;28;20190;-57
2021/04/17 03:17:55;;;;;;;10.27;7.57;;;;;;;;;;2097916;28;20733;-59
2021/04/17 03:18:55;;;;;;;8.77;7.00;;;;;;;;;;2099792;28;20266;-58
2021/04/17 03:19:56;;;;;;;8.33;6.97;;;;;;;;;;2099759;28;20203;-58
2021/04/17 03:20:56;;;;;;;8.97;7.70;;;;;;;;;;2098183;28;20657;-57
2021/04/17 03:21:56;;;;;;;9.23;7.43;;;;;;;;;;2098611;28;20673;-57
2021/04/17 03:22:57;;;;;;;8.83;7.37;;;;;;;;;;2099466;28;20187;-60
2021/04/17 03:23:57;;;;;;;8.47;7.27;;;;;;;;;;2098323;28;20170;-57
2021/04/17 03:24:58;;;;;;;8.47;7.57;;;;;;;;;;2099360;28;20191;-59
2021/04/17 03:25:58;;;;;;;9.40;8.00;;;;;;;;;;2099751;28;20163;-59
2021/04/17 03:26:58;;;;;;;10.27;7.17;;;;;;;;;;2099129;28;20159;-55
2021/04/17 03:27:58;;;;;;;17.17;8.20;;;;;;;;;;2098808;28;20257;-57
2021/04/17 03:28:59;;;;;;;10.37;7.30;;;;;;;;;;2098548;28;20220;-57
2021/04/17 03:29:59;;;;;;;9.90;8.20;;;;;;;;;;2099357;28;20234;-57
2021/04/17 03:30:59;;;;;;;9.93;7.77;;;;;;;;;;2098916;28;20171;-57
2021/04/17 03:32:00;;;;;;;10.17;8.10;;;;;;;;;;2099690;28;20198;-59
2021/04/17 03:33:01;;;;;;;9.63;7.30;;;;;;;;;;2097148;28;20723;-56
2021/04/17 03:34:01;;;;;;;10.20;8.20;;;;;;;;;;2098587;28;20181;-57
2021/04/17 03:35:02;;;;;;;10.37;7.60;;;;;;;;;;2099238;28;20557;-58
2021/04/17 03:36:03;;;;;;;12.23;8.63;;;;;;;;;;2100822;28;20555;-57
2021/04/17 03:37:03;;;;;;;9.47;7.73;;;;;;;;;;2105615;28;20198;-55
2021/04/17 03:38:03;;;;;;;9.80;8.33;;;;;;;;;;2098109;28;20206;-57
2021/04/17 03:39:04;;;;;;;8.70;7.70;;;;;;;;;;2100035;28;20189;-58
2021/04/17 03:40:05;;;;;;;10.53;7.97;;;;;;;;;;2098423;28;20284;-58
2021/04/17 03:41:06;;;;;;;8.30;7.47;;;;;;;;;;2098632;28;20187;-58
2021/04/17 03:42:06;;;;;;;8.87;7.97;;;;;;;;;;2099240;28;20174;-56
2021/04/17 03:43:07;;;;;;;9.70;7.87;;;;;;;;;;2098196;28;20252;-53
2021/04/17 03:44:07;;;;;;;10.63;7.60;;;;;;;;;;2098263;28;20194;-57
2021/04/17 03:45:08;;;;;;;13.07;8.50;;;;;;;;;;2099057;28;20182;-57
2021/04/17 03:46:08;;;;;;;8.83;7.93;;;;;;;;;;2100722;28;20179;-57
2021/04/17 03:47:08;;;;;;;10.63;9.00;;;;;;;;;;2100510;28;20163;-59
2021/04/17 03:48:08;;;;;;;12.20;8.17;;;;;;;;;;2099550;28;20592;-61
2021/04/17 03:49:09;;;;;;;11.07;8.50;;;;;;;;;;2096401;28;20244;-60
2021/04/17 03:50:10;;;;;;;13.80;8.43;;;;;;;;;;2100640;28;20171;-59
2021/04/17 03:51:10;;;;;;;11.53;8.13;;;;;;;;;;2100232;28;20179;-60
2021/04/17 03:52:11;;;;;;;11.30;8.37;;;;;;;;;;2100923;28;20159;-58
2021/04/17 03:53:12;;;;;;;13.27;8.13;;;;;;;;;;2099969;28;20620;-56
2021/04/17 03:54:12;;;;;;;15.87;7.90;;;;;;;;;;2100093;28;20187;-58
2021/04/17 03:55:14;;;;;;;12.87;8.90;;;;;;;;;;2091632;28;20172;-58
2021/04/17 03:56:14;;;;;;;10.87;8.60;;;;;;;;;;2091042;28;20183;-57
2021/04/17 03:57:14;;;;;;;11.40;8.17;;;;;;;;;;2083800;28;20176;-60
2021/04/17 03:58:15;;;;;;;11.50;7.83;;;;;;;;;;2098009;28;20186;-60
2021/04/17 03:59:15;;;;;;;9.83;7.63;;;;;;;;;;2100605;28;20265;-61
2021/04/17 04:00:18;;;;;;;9.93;8.53;;;;;;;;;;2099272;28;20194;-58
2021/04/17 04:01:18;;;;;;;9.17;8.10;;;;;;;;;;2092530;28;20188;-57
2021/04/17 04:02:18;;;;;;;10.47;8.17;;;;;;;;;;2094509;28;20202;-61
2021/04/17 04:03:19;;;;;;;8.97;8.07;;;;;;;;;;2095020;28;20627;-60
2021/04/17 04:04:19;;;;;;;10.33;8.23;;;;;;;;;;2099566;28;20179;-61
2021/04/17 04:05:19;;;;;;;10.80;8.80;;;;;;;;;;2099909;28;20254;-60
2021/04/17 04:07:47;;;;;;;9.67;7.73;;;;;;;;;;2092156;28;20232;-60
2021/04/17 04:08:47;;;;;;;10.43;7.87;;;;;;;;;;2100446;28;20175;-60
2021/04/17 04:09:47;;;;;;;12.00;8.30;;;;;;;;;;2100371;28;20310;-57
2021/04/17 04:10:48;;;;;;;11.77;8.23;;;;;;;;;;2100753;28;20173;-59
2021/04/17 04:11:48;;;;;;;11.60;7.93;;;;;;;;;;2101207;28;20182;-58
2021/04/17 04:12:48;;;;;;;8.40;7.60;;;;;;;;;;2099464;28;20198;-59
2021/04/17 04:13:49;;;;;;;12.73;9.10;;;;;;;;;;2100115;28;20171;-57
2021/04/17 04:14:49;;;;;;;14.57;8.20;;;;;;;;;;2100327;28;20191;-57
2021/04/17 04:15:50;;;;;;;13.00;9.07;;;;;;;;;;2093790;28;20188;-59
2021/04/17 04:16:50;;;;;;;11.73;8.73;;;;;;;;;;2100940;28;20178;-58
2021/04/17 04:17:50;;;;;;;12.53;8.60;;;;;;;;;;2099114;28;20587;-59
2021/04/17 04:18:50;;;;;;;14.20;8.70;;;;;;;;;;2101167;28;20220;-54
2021/04/17 04:19:51;;;;;;;10.57;8.03;;;;;;;;;;2100589;28;20210;-59
2021/04/17 04:20:51;;;;;;;12.13;8.50;;;;;;;;;;2099464;28;20681;-59
2021/04/17 04:21:51;;;;;;;11.90;8.90;;;;;;;;;;2100599;28;20182;-57
2021/04/17 04:22:51;;;;;;;10.93;8.03;;;;;;;;;;2099411;28;20190;-61
2021/04/17 04:23:52;;;;;;;10.67;8.10;;;;;;;;;;2090090;28;20174;-60
2021/04/17 04:24:52;;;;;;;14.80;8.47;;;;;;;;;;2099352;28;20182;-55
2021/04/17 04:25:52;;;;;;;11.77;8.47;;;;;;;;;;2100615;28;20634;-61
2021/04/17 04:26:53;;;;;;;13.13;8.27;;;;;;;;;;2100267;28;20171;-56
2021/04/17 04:27:53;;;;;;;10.00;8.13;;;;;;;;;;2093962;28;20640;-55
2021/04/17 04:28:53;;;;;;;15.77;9.03;;;;;;;;;;2100762;28;20220;-55
2021/04/17 04:29:54;;;;;;;11.53;8.30;;;;;;;;;;2100126;28;20189;-57
2021/04/17 04:30:54;;;;;;;10.53;8.27;;;;;;;;;;2100485;28;20194;-59
2021/04/17 04:31:54;;;;;;;14.17;8.97;;;;;;;;;;2100730;28;20596;-62
2021/04/17 04:32:55;;;;;;;13.40;8.00;;;;;;;;;;2095925;28;20249;-61
2021/04/17 04:33:55;;;;;;;11.30;8.00;;;;;;;;;;2100318;28;20631;-61
2021/04/17 04:34:55;;;;;;;11.87;8.80;;;;;;;;;;2100116;28;20526;-61
2021/04/17 04:35:56;;;;;;;10.90;7.83;;;;;;;;;;2099498;28;20167;-61
2021/04/17 04:36:56;;;;;;;10.53;8.53;;;;;;;;;;2098623;28;20191;-60
2021/04/17 04:37:56;;;;;;;10.80;8.13;;;;;;;;;;2099293;28;20171;-60
2021/04/17 04:38:56;;;;;;;12.10;8.03;;;;;;;;;;2099233;28;20643;-63
2021/04/17 04:39:57;;;;;;;12.20;8.30;;;;;;;;;;2099888;28;20293;-59
2021/04/17 04:40:58;;;;;;;10.80;8.40;;;;;;;;;;2100121;28;20167;-60
2021/04/17 04:41:58;;;;;;;13.60;8.50;;;;;;;;;;2099264;28;20193;-60
2021/04/17 04:42:59;;;;;;;11.67;7.80;;;;;;;;;;2100105;28;20788;-62
2021/04/17 04:43:59;;;;;;;9.73;8.73;;;;;;;;;;2100108;28;20163;-63
2021/04/17 04:45:00;;;;;;;14.10;8.10;;;;;;;;;;2100172;28;20229;-62
2021/04/17 04:46:00;;;;;;;12.63;9.10;;;;;;;;;;2098926;28;20224;-60
2021/04/17 04:47:00;;;;;;;10.27;8.67;;;;;;;;;;2098980;28;20171;-60
2021/04/17 04:48:01;;;;;;;12.30;8.87;;;;;;;;;;2099350;28;20185;-60
2021/04/17 04:49:01;;;;;;;15.43;8.53;;;;;;;;;;2099952;28;20642;-57
2021/04/17 04:50:06;;;;;;;9.63;8.03;;;;;;;;;;2100745;28;20186;-59
2021/04/17 04:51:06;;;;;;;15.37;9.10;;;;;;;;;;2100384;28;20260;-57
2021/04/17 04:52:07;;;;;;;12.57;8.60;;;;;;;;;;2098807;28;20197;-59
2021/04/17 04:53:07;;;;;;;15.40;9.77;;;;;;;;;;2099953;28;20216;-61
2021/04/17 04:54:07;;;;;;;11.47;8.60;;;;;;;;;;2098738;28;20185;-61
2021/04/17 04:55:08;;;;;;;12.57;8.53;;;;;;;;;;2099493;28;20173;-59
2021/04/17 04:56:08;;;;;;;12.60;9.60;;;;;;;;;;2100233;28;20266;-57
2021/04/17 04:57:08;;;;;;;11.10;8.73;;;;;;;;;;2099374;28;20194;-60
2021/04/17 04:58:09;;;;;;;12.07;8.83;;;;;;;;;;2100364;28;20182;-55
2021/04/17 04:59:09;;;;;;;12.57;8.47;;;;;;;;;;2099675;28;20202;-60
2021/04/17 05:00:10;;;;;;;14.50;9.20;;;;;;;;;;2099076;28;20254;-55
2021/04/17 05:01:10;;;;;;;11.20;8.70;;;;;;;;;;2098555;28;20229;-60
2021/04/17 05:02:10;;;;;;;12.00;8.97;;;;;;;;;;2090452;28;20172;-59
2021/04/17 05:03:10;;;;;;;11.60;8.57;;;;;;;;;;2098428;28;20725;-61
2021/04/17 05:04:11;;;;;;;11.37;9.17;;;;;;;;;;2094650;28;20174;-60
2021/04/17 05:05:11;;;;;;;9.80;8.63;;;;;;;;;;2100757;28;20167;-58
2021/04/17 05:06:11;;;;;;;10.83;8.90;;;;;;;;;;2100563;28;20167;-58
2021/04/17 05:07:12;;;;;;;10.60;8.60;;;;;;;;;;2099384;28;20194;-60
2021/04/17 05:08:12;;;;;;;9.10;7.87;;;;;;;;;;2100755;28;20257;-60
2021/04/17 05:09:13;;;;;;;14.83;8.93;;;;;;;;;;2098551;28;20586;-59
2021/04/17 05:10:13;;;;;;;13.63;9.03;;;;;;;;;;2098729;28;20195;-60
2021/04/17 05:11:13;;;;;;;14.63;8.37;;;;;;;;;;2098811;28;20180;-59
2021/04/17 05:12:13;;;;;;;10.73;8.87;;;;;;;;;;2098543;28;20178;-58
2021/04/17 05:13:14;;;;;;;11.50;9.10;;;;;;;;;;2097631;28;20245;-58
2021/04/17 05:14:14;;;;;;;14.20;8.97;;;;;;;;;;2098128;28;20179;-59
2021/04/17 05:15:15;;;;;;;9.97;8.57;;;;;;;;;;2098408;28;20179;-60
2021/04/17 05:16:15;;;;;;;10.53;9.17;;;;;;;;;;2098955;28;20175;-61
2021/04/17 05:17:15;;;;;;;9.17;8.20;;;;;;;;;;2098238;28;20674;-62
2021/04/17 05:18:16;;;;;;;11.43;7.93;;;;;;;;;;2096733;28;20175;-60
2021/04/17 05:19:16;;;;;;;10.07;8.00;;;;;;;;;;2096257;28;20182;-60
2021/04/17 05:20:16;;;;;;;11.30;8.17;;;;;;;;;;2097425;28;20591;-57
2021/04/17 05:21:17;;;;;;;18.20;8.70;;;;;;;;;;2094027;28;20178;-60
2021/04/17 05:22:17;;;;;;;9.80;7.93;;;;;;;;;;2094235;28;20177;-59
2021/04/17 05:23:17;;;;;;;10.17;7.70;;;;;;;;;;2097799;28;20694;-59
2021/04/17 05:24:18;;;;;;;8.97;7.87;;;;;;;;;;2098824;28;20665;-58
2021/04/17 05:25:18;;;;;;;12.47;8.17;;;;;;;;;;2100663;28;20175;-60
2021/04/17 05:26:18;;;;;;;13.50;7.83;;;;;;;;;;2099528;28;20167;-60
2021/04/17 05:27:19;;;;;;;8.67;7.70;;;;;;;;;;2095489;28;20225;-60
2021/04/17 05:28:19;;;;;;;11.20;8.13;;;;;;;;;;2099334;28;20708;-59
2021/04/17 05:29:19;;;;;;;11.40;7.87;;;;;;;;;;2098931;28;20203;-59
2021/04/17 05:30:20;;;;;;;9.77;8.57;;;;;;;;;;2099358;28;20175;-59
2021/04/17 05:31:20;;;;;;;12.37;8.53;;;;;;;;;;2089913;28;20556;-59
2021/04/17 05:32:20;;;;;;;14.50;7.90;;;;;;;;;;2082684;28;20176;-59
2021/04/17 05:33:20;;;;;;;9.67;8.10;;;;;;;;;;2098847;28;20198;-58
2021/04/17 05:34:21;;;;;;;10.77;7.37;;;;;;;;;;2098862;28;20187;-60
2021/04/17 05:35:21;;;;;;;12.43;8.10;;;;;;;;;;2099606;28;20175;-60
2021/04/17 05:36:21;;;;;;;11.30;7.87;;;;;;;;;;2098915;28;20174;-57
2021/04/17 05:37:21;;;;;;;10.53;8.80;;;;;;;;;;2099900;28;20167;-61
2021/04/17 05:38:22;;;;;;;8.43;7.53;;;;;;;;;;2099733;28;20243;-58
2021/04/17 05:39:22;;;;;;;9.93;7.50;;;;;;;;;;2099613;28;22071;-58
2021/04/17 05:40:23;;;;;;;10.30;7.60;;;;;;;;;;2099925;28;20728;-60
2021/04/17 05:41:24;;;;;;;11.77;7.90;;;;;;;;;;2097145;28;20211;-58
2021/04/17 05:42:24;;;;;;;8.10;7.07;;;;;;;;;;2096632;28;20228;-59
2021/04/17 05:43:26;;;;;;;15.57;7.87;;;;;;;;;;2099263;28;20243;-59
2021/04/17 05:44:26;;;;;;;9.17;7.77;;;;;;;;;;2099767;28;20178;-59
2021/04/17 05:45:28;;;;;;;9.70;8.20;;;;;;;;;;2099762;28;20729;-59
2021/04/17 05:46:28;;;;;;;8.40;7.10;;;;;;;;;;2090872;28;20179;-57
2021/04/17 05:47:28;;;;;;;10.63;6.80;;;;;;;;;;2096534;28;20246;-56
2021/04/17 05:48:29;;;;;;;8.83;7.40;;;;;;;;;;2102463;28;20163;-58
2021/04/17 05:49:29;;;;;;;7.77;6.90;;;;;;;;;;2097293;28;20210;-58
2021/04/17 05:50:29;;;;;;;7.87;7.00;;;;;;;;;;2099980;28;20515;-57
2021/04/17 05:51:31;;;;;;;12.47;7.93;;;;;;;;;;2100110;28;20630;-60
2021/04/17 05:52:31;;;;;;;10.63;7.17;;;;;;;;;;2101589;28;20171;-60
2021/04/17 05:53:32;;;;;;;11.70;7.93;;;;;;;;;;2100109;28;20269;-60
2021/04/17 05:54:32;;;;;;;11.47;7.30;;;;;;;;;;2100679;28;20185;-60
2021/04/17 05:55:32;;;;;;;10.47;6.73;;;;;;;;;;2099638;28;20679;-60
2021/04/17 05:56:33;;;;;;;8.90;7.43;;;;;;;;;;2099318;28;20213;-59
2021/04/17 05:57:33;;;;;;;13.07;7.27;;;;;;;;;;2099854;28;20175;-59
2021/04/17 05:58:33;;;;;;;10.00;7.40;;;;;;;;;;2099846;28;20522;-55
2021/04/17 05:59:34;;;;;;;11.33;7.63;;;;;;;;;;2099795;28;20268;-57
2021/04/17 06:00:34;;;;;;;8.63;7.27;;;;;;;;;;2100010;28;20653;-59
2021/04/17 06:01:34;;;;;;;9.33;7.00;;;;;;;;;;2098700;28;20167;-58
2021/04/17 06:02:35;;;;;;;10.53;7.67;;;;;;;;;;2098921;28;20274;-60
2021/04/17 06:03:35;;;;;;;12.07;7.17;;;;;;;;;;2098484;28;20215;-56